Time;durP1;ratioP1;P1;durP2;ratioP2;P2;SDS_P1;SDS_P2;PMS_P1;PMS_P2;Temp;Humidity;BMP_temperature;BMP_pressure;BME280_temperature;BME280_humidity;BME280_pressure;Samples;Min_cycle;Max_cycle;Signal;HPM_P1;HPM_P2
2022/05/13 00:01:10;;;;;;;10.82;2.67;;;;;;;;;;4966571;28;20058;-88
2022/05/13 00:03:37;;;;;;;13.20;3.40;;;;;;;;;;4977140;28;20530;-88
2022/05/13 00:06:04;;;;;;;15.02;3.08;;;;;;;;;;4965230;28;20505;-88
2022/05/13 00:08:30;;;;;;;11.27;2.45;;;;;;;;;;4966090;28;20034;-87
2022/05/13 00:10:56;;;;;;;11.48;3.30;;;;;;;;;;4970434;28;20477;-88
2022/05/13 00:13:22;;;;;;;12.00;2.70;;;;;;;;;;4954789;28;20715;-88
2022/05/13 00:15:48;;;;;;;13.20;2.95;;;;;;;;;;4961622;28;20074;-88
2022/05/13 00:18:15;;;;;;;8.85;2.33;;;;;;;;;;4963883;28;20105;-87
2022/05/13 00:20:41;;;;;;;17.08;3.45;;;;;;;;;;4967019;28;20842;-88
2022/05/13 00:23:08;;;;;;;7.30;2.63;;;;;;;;;;4963156;28;20092;-88
2022/05/13 00:25:35;;;;;;;12.40;3.25;;;;;;;;;;4958464;28;20031;-87
2022/05/13 00:28:03;;;;;;;10.52;2.83;;;;;;;;;;4965285;28;20034;-88
2022/05/13 00:30:30;;;;;;;8.52;3.55;;;;;;;;;;4965751;28;20125;-88
2022/05/13 00:32:56;;;;;;;11.05;2.97;;;;;;;;;;4954067;28;20176;-88
2022/05/13 00:35:23;;;;;;;9.00;3.10;;;;;;;;;;4958497;28;20030;-88
2022/05/13 00:37:49;;;;;;;12.50;3.03;;;;;;;;;;4957091;28;20026;-88
2022/05/13 00:40:16;;;;;;;15.40;3.58;;;;;;;;;;4960681;28;20041;-89
2022/05/13 00:42:43;;;;;;;8.60;2.67;;;;;;;;;;4959761;28;20081;-88
2022/05/13 00:45:10;;;;;;;10.43;2.97;;;;;;;;;;4965293;28;20034;-89
2022/05/13 00:47:36;;;;;;;8.43;3.22;;;;;;;;;;4960795;28;20035;-89
2022/05/13 00:50:03;;;;;;;10.13;3.25;;;;;;;;;;4964503;28;20034;-88
2022/05/13 00:52:29;;;;;;;6.53;2.50;;;;;;;;;;4982281;28;20031;-88
2022/05/13 00:54:55;;;;;;;10.35;3.10;;;;;;;;;;4963953;28;20373;-88
2022/05/13 00:57:22;;;;;;;9.57;3.70;;;;;;;;;;4960561;28;20046;-88
2022/05/13 00:59:50;;;;;;;12.43;3.33;;;;;;;;;;4956252;28;20084;-88
2022/05/13 01:02:16;;;;;;;9.43;3.00;;;;;;;;;;4963766;28;20038;-88
2022/05/13 01:04:43;;;;;;;10.48;2.60;;;;;;;;;;4961392;28;20160;-88
2022/05/13 01:07:11;;;;;;;9.65;2.97;;;;;;;;;;4956892;28;20116;-89
2022/05/13 01:09:39;;;;;;;8.85;3.47;;;;;;;;;;4971608;28;20506;-88
2022/05/13 01:12:09;;;;;;;9.23;2.95;;;;;;;;;;4939923;28;20031;-88
2022/05/13 01:14:40;;;;;;;8.57;3.17;;;;;;;;;;4943553;28;20022;-88
2022/05/13 01:20:11;;;;;;;8.95;2.67;;;;;;;;;;4958666;28;20097;-87
2022/05/13 01:22:45;;;;;;;7.45;2.65;;;;;;;;;;4941693;28;21869;-88
2022/05/13 01:25:17;;;;;;;16.63;3.22;;;;;;;;;;4951539;28;20039;-88
2022/05/13 01:27:44;;;;;;;12.43;2.97;;;;;;;;;;4953106;28;20101;-87
2022/05/13 01:30:12;;;;;;;15.55;3.28;;;;;;;;;;4952426;28;20098;-88
2022/05/13 01:32:38;;;;;;;13.10;3.30;;;;;;;;;;4948937;28;20368;-88
2022/05/13 01:35:04;;;;;;;9.18;3.33;;;;;;;;;;4939826;28;20082;-89
2022/05/13 01:37:30;;;;;;;9.88;3.30;;;;;;;;;;4952259;28;20038;-88
2022/05/13 01:39:56;;;;;;;9.98;2.88;;;;;;;;;;4961998;28;20030;-87
2022/05/13 01:42:22;;;;;;;11.98;2.88;;;;;;;;;;4945895;28;20060;-87
2022/05/13 01:44:48;;;;;;;16.15;3.42;;;;;;;;;;4958912;28;20074;-88
2022/05/13 01:47:14;;;;;;;9.52;2.85;;;;;;;;;;4938215;28;20506;-88
2022/05/13 01:49:40;;;;;;;9.93;3.75;;;;;;;;;;4943296;28;20034;-88
2022/05/13 01:52:07;;;;;;;11.48;3.88;;;;;;;;;;4951706;28;20556;-88
2022/05/13 01:54:32;;;;;;;11.10;3.25;;;;;;;;;;4949938;28;20038;-87
2022/05/13 01:56:59;;;;;;;11.50;3.60;;;;;;;;;;4952703;28;20042;-87
2022/05/13 01:59:25;;;;;;;14.55;3.17;;;;;;;;;;4941148;28;20045;-87
2022/05/13 02:01:57;;;;;;;14.02;4.05;;;;;;;;;;4938217;28;20695;-87
2022/05/13 02:04:30;;;;;;;13.43;3.72;;;;;;;;;;4954152;28;20503;-88
2022/05/13 02:06:56;;;;;;;8.65;3.42;;;;;;;;;;4942573;28;20045;-88
2022/05/13 02:09:22;;;;;;;11.07;3.78;;;;;;;;;;4948706;28;20386;-88
2022/05/13 02:11:48;;;;;;;18.45;5.15;;;;;;;;;;4942756;28;20039;-88
2022/05/13 02:14:14;;;;;;;15.05;3.80;;;;;;;;;;4959767;28;20081;-88
2022/05/13 02:16:40;;;;;;;9.45;3.75;;;;;;;;;;4944785;28;20648;-87
2022/05/13 02:19:06;;;;;;;14.13;3.97;;;;;;;;;;4945676;28;20042;-87
2022/05/13 02:21:32;;;;;;;13.50;4.18;;;;;;;;;;4946338;28;20039;-88
2022/05/13 02:23:58;;;;;;;12.88;3.50;;;;;;;;;;4955317;28;20051;-88
2022/05/13 02:26:24;;;;;;;15.32;5.07;;;;;;;;;;4963542;28;20031;-88
2022/05/13 02:28:51;;;;;;;13.23;4.43;;;;;;;;;;4964928;28;20506;-88
2022/05/13 02:31:17;;;;;;;14.60;4.05;;;;;;;;;;4939124;28;20047;-89
2022/05/13 02:33:43;;;;;;;14.73;4.38;;;;;;;;;;4944973;28;20501;-87
2022/05/13 02:36:11;;;;;;;8.38;3.78;;;;;;;;;;4947476;28;20038;-89
2022/05/13 02:38:37;;;;;;;11.65;4.30;;;;;;;;;;4962278;28;20030;-88
2022/05/13 02:41:13;;;;;;;17.02;4.53;;;;;;;;;;4938732;28;20177;-87
2022/05/13 02:43:43;;;;;;;13.52;3.65;;;;;;;;;;4961160;28;20030;-88
2022/05/13 02:46:10;;;;;;;13.68;3.22;;;;;;;;;;4962952;28;20383;-88
2022/05/13 02:48:43;;;;;;;14.65;4.63;;;;;;;;;;4945075;28;20026;-88
2022/05/13 02:51:09;;;;;;;15.43;4.63;;;;;;;;;;4957594;28;20030;-87
2022/05/13 02:53:35;;;;;;;15.63;4.30;;;;;;;;;;4949127;28;20494;-88
2022/05/13 02:56:01;;;;;;;21.88;4.32;;;;;;;;;;4965251;28;20451;-87
2022/05/13 02:58:27;;;;;;;16.88;4.57;;;;;;;;;;4960441;28;21150;-88
2022/05/13 03:00:53;;;;;;;20.67;4.00;;;;;;;;;;4950107;28;20618;-87
2022/05/13 03:03:19;;;;;;;18.50;4.15;;;;;;;;;;4964493;28;20050;-89
2022/05/13 03:05:45;;;;;;;13.05;5.05;;;;;;;;;;4948816;28;20502;-89
2022/05/13 03:08:11;;;;;;;19.05;4.95;;;;;;;;;;4948668;28;20038;-88
2022/05/13 03:10:38;;;;;;;15.90;4.35;;;;;;;;;;4958113;28;20051;-87
2022/05/13 03:13:05;;;;;;;13.80;3.67;;;;;;;;;;4963385;28;20034;-88
2022/05/13 03:15:32;;;;;;;16.38;4.28;;;;;;;;;;4978388;28;20038;-87
2022/05/13 03:17:58;;;;;;;20.23;4.30;;;;;;;;;;4960864;28;20487;-88
2022/05/13 03:20:25;;;;;;;16.13;5.07;;;;;;;;;;4963291;28;20093;-87
2022/05/13 03:22:51;;;;;;;18.27;4.35;;;;;;;;;;4955184;28;20038;-87
2022/05/13 03:25:18;;;;;;;15.68;4.10;;;;;;;;;;4963582;28;20026;-87
2022/05/13 03:27:44;;;;;;;19.83;4.18;;;;;;;;;;4959852;28;20105;-88
2022/05/13 03:30:12;;;;;;;13.13;4.30;;;;;;;;;;4962208;28;20034;-88
2022/05/13 03:32:38;;;;;;;12.25;3.38;;;;;;;;;;4973528;28;20130;-88
2022/05/13 03:35:05;;;;;;;13.10;4.03;;;;;;;;;;4957667;28;20710;-88
2022/05/13 03:37:31;;;;;;;14.85;3.85;;;;;;;;;;4959202;28;20038;-88
2022/05/13 03:39:57;;;;;;;21.90;4.45;;;;;;;;;;4959005;28;20042;-89
2022/05/13 03:42:23;;;;;;;19.30;3.85;;;;;;;;;;4970681;28;20049;-88
2022/05/13 03:44:50;;;;;;;17.30;4.40;;;;;;;;;;4962296;28;20081;-88
2022/05/13 03:47:16;;;;;;;23.92;4.15;;;;;;;;;;4959908;28;20077;-88
2022/05/13 03:49:42;;;;;;;24.15;3.72;;;;;;;;;;4965615;28;20030;-88
2022/05/13 03:52:09;;;;;;;22.88;4.43;;;;;;;;;;4966477;28;20055;-87
2022/05/13 03:54:35;;;;;;;13.55;3.90;;;;;;;;;;4965361;28;20146;-87
2022/05/13 03:57:02;;;;;;;20.38;3.97;;;;;;;;;;4957486;28;20034;-88
2022/05/13 03:59:28;;;;;;;18.55;4.38;;;;;;;;;;4959956;28;20077;-88
2022/05/13 04:01:54;;;;;;;9.68;3.50;;;;;;;;;;4981407;28;20066;-87
2022/05/13 04:04:22;;;;;;;19.15;3.78;;;;;;;;;;4965457;28;20026;-88
2022/05/13 04:09:35;;;;;;;15.43;4.10;;;;;;;;;;4980240;28;20217;-88
2022/05/13 04:17:30;;;;;;;18.80;4.75;;;;;;;;;;4981192;28;20097;-87
2022/05/13 04:19:56;;;;;;;24.02;5.10;;;;;;;;;;4952901;28;20030;-87
2022/05/13 04:22:24;;;;;;;11.27;4.53;;;;;;;;;;4964059;28;20035;-88
2022/05/13 04:24:50;;;;;;;16.55;4.82;;;;;;;;;;4961894;28;20136;-87
2022/05/13 04:27:16;;;;;;;11.02;2.78;;;;;;;;;;4954757;28;20129;-87
2022/05/13 04:29:42;;;;;;;19.75;3.97;;;;;;;;;;4955780;28;20585;-87
2022/05/13 04:32:09;;;;;;;13.48;4.55;;;;;;;;;;4958013;28;20078;-88
2022/05/13 04:34:35;;;;;;;25.48;5.47;;;;;;;;;;4958166;28;20026;-88
2022/05/13 04:37:02;;;;;;;15.38;4.00;;;;;;;;;;4965788;28;20041;-88
2022/05/13 04:39:28;;;;;;;24.48;3.70;;;;;;;;;;4965347;28;20038;-87
2022/05/13 04:44:39;;;;;;;15.23;4.63;;;;;;;;;;4979807;28;20033;-87
2022/05/13 04:49:50;;;;;;;22.02;4.47;;;;;;;;;;4980074;28;20122;-88
2022/05/13 04:52:16;;;;;;;14.40;4.13;;;;;;;;;;4960703;28;20084;-88
2022/05/13 04:54:42;;;;;;;13.07;4.50;;;;;;;;;;4958708;28;20516;-87
2022/05/13 04:57:08;;;;;;;21.60;4.53;;;;;;;;;;4955858;28;20122;-88
2022/05/13 04:59:34;;;;;;;18.30;3.70;;;;;;;;;;4966717;28;20046;-87
2022/05/13 05:02:00;;;;;;;19.23;4.25;;;;;;;;;;4976785;28;20084;-89
2022/05/13 05:04:26;;;;;;;20.15;4.63;;;;;;;;;;4959852;28;20079;-88
2022/05/13 05:06:52;;;;;;;18.73;3.53;;;;;;;;;;4960474;28;20117;-88
2022/05/13 05:09:18;;;;;;;32.20;4.70;;;;;;;;;;4956994;28;20039;-88
2022/05/13 05:11:51;;;;;;;16.10;3.75;;;;;;;;;;4987655;28;20050;-88
2022/05/13 05:14:17;;;;;;;22.23;4.13;;;;;;;;;;4964332;28;20038;-89
2022/05/13 05:16:43;;;;;;;23.92;4.25;;;;;;;;;;4965218;28;20030;-87
2022/05/13 05:19:09;;;;;;;24.00;5.95;;;;;;;;;;4963961;28;20026;-88
2022/05/13 05:21:35;;;;;;;14.07;3.45;;;;;;;;;;4981406;28;20057;-88
2022/05/13 05:24:02;;;;;;;13.90;3.47;;;;;;;;;;4962980;28;20038;-87
2022/05/13 05:26:28;;;;;;;16.85;3.45;;;;;;;;;;4959023;28;20034;-88
2022/05/13 05:28:54;;;;;;;22.45;4.40;;;;;;;;;;4959833;28;20030;-88
2022/05/13 05:31:20;;;;;;;12.32;3.13;;;;;;;;;;4954925;28;20076;-87
2022/05/13 05:33:46;;;;;;;13.07;3.95;;;;;;;;;;4955927;28;20038;-87
2022/05/13 05:36:12;;;;;;;18.77;3.92;;;;;;;;;;4961298;28;20490;-86
2022/05/13 05:38:38;;;;;;;11.68;3.47;;;;;;;;;;4977962;28;20049;-87
2022/05/13 05:41:04;;;;;;;11.55;3.05;;;;;;;;;;4957660;28;20042;-86
2022/05/13 05:43:31;;;;;;;10.95;2.97;;;;;;;;;;4956083;28;20289;-86
2022/05/13 05:45:58;;;;;;;13.63;3.10;;;;;;;;;;4977092;28;20026;-88
2022/05/13 05:48:24;;;;;;;9.70;2.88;;;;;;;;;;4969065;28;20030;-87
2022/05/13 05:50:50;;;;;;;15.30;2.97;;;;;;;;;;4956316;28;20029;-87
2022/05/13 05:57:13;;;;;;;21.42;3.65;;;;;;;;;;4953782;28;20053;-86
2022/05/13 05:58:47;;;;;;;20.02;4.65;;;;;;;;;;4979232;28;20528;-87
2022/05/13 06:01:13;;;;;;;5.20;2.28;;;;;;;;;;4960301;28;20477;-87
2022/05/13 06:03:40;;;;;;;20.15;3.40;;;;;;;;;;4980688;28;20034;-87
2022/05/13 06:06:09;;;;;;;11.02;2.40;;;;;;;;;;4952176;28;20162;-87
2022/05/13 06:08:35;;;;;;;12.77;2.88;;;;;;;;;;4960277;28;20049;-87
2022/05/13 06:11:01;;;;;;;10.73;2.67;;;;;;;;;;4954438;28;20941;-86
2022/05/13 06:13:27;;;;;;;11.57;2.53;;;;;;;;;;4961854;28;20023;-86
2022/05/13 06:15:53;;;;;;;13.05;3.03;;;;;;;;;;4963207;28;20037;-86
2022/05/13 06:18:19;;;;;;;5.28;2.38;;;;;;;;;;4961681;28;20030;-87
2022/05/13 06:20:45;;;;;;;11.38;2.58;;;;;;;;;;4960934;28;20034;-86
2022/05/13 06:23:12;;;;;;;12.60;2.65;;;;;;;;;;4978161;28;20394;-86
2022/05/13 06:25:39;;;;;;;14.77;2.22;;;;;;;;;;4973121;28;20486;-86
2022/05/13 06:28:06;;;;;;;8.10;2.30;;;;;;;;;;4976528;28;20019;-87
2022/05/13 06:30:34;;;;;;;11.48;3.00;;;;;;;;;;4963559;28;20500;-87
2022/05/13 06:33:00;;;;;;;12.55;3.00;;;;;;;;;;4980053;28;20038;-86
2022/05/13 06:35:27;;;;;;;14.82;2.55;;;;;;;;;;4962893;28;20046;-86
2022/05/13 06:37:53;;;;;;;9.70;2.90;;;;;;;;;;4968225;28;20502;-86
2022/05/13 06:40:22;;;;;;;19.50;2.60;;;;;;;;;;4967055;28;20487;-86
2022/05/13 06:42:49;;;;;;;7.45;2.65;;;;;;;;;;4983405;28;20057;-87
2022/05/13 06:45:15;;;;;;;6.32;2.33;;;;;;;;;;4966121;28;20037;-86
2022/05/13 06:47:41;;;;;;;10.02;2.15;;;;;;;;;;4966119;28;20069;-87
2022/05/13 06:50:09;;;;;;;12.95;3.00;;;;;;;;;;4980384;28;20986;-86
2022/05/13 06:52:35;;;;;;;17.20;2.78;;;;;;;;;;4961882;28;20038;-86
2022/05/13 06:55:01;;;;;;;8.65;2.50;;;;;;;;;;4976366;28;20092;-87
2022/05/13 06:57:27;;;;;;;10.20;2.70;;;;;;;;;;4962214;28;20757;-87
2022/05/13 06:59:53;;;;;;;6.78;2.53;;;;;;;;;;4950750;28;20038;-86
2022/05/13 07:02:21;;;;;;;11.40;2.60;;;;;;;;;;4963639;28;20038;-86
2022/05/13 07:04:47;;;;;;;3.20;1.65;;;;;;;;;;4966198;28;20034;-86
2022/05/13 07:07:14;;;;;;;12.32;2.55;;;;;;;;;;4979605;28;20610;-86
2022/05/13 07:09:40;;;;;;;7.85;2.28;;;;;;;;;;4966238;28;20026;-86
2022/05/13 07:12:07;;;;;;;12.60;2.47;;;;;;;;;;4961329;28;20560;-87
2022/05/13 07:14:34;;;;;;;6.45;1.83;;;;;;;;;;4967207;28;20114;-87
2022/05/13 07:17:00;;;;;;;7.95;1.77;;;;;;;;;;4962137;28;20043;-86
2022/05/13 07:19:26;;;;;;;10.73;2.58;;;;;;;;;;4960239;28;20037;-86
2022/05/13 07:21:52;;;;;;;7.22;2.65;;;;;;;;;;4966127;28;20429;-87
2022/05/13 07:24:18;;;;;;;8.80;2.15;;;;;;;;;;4968406;28;20034;-86
2022/05/13 07:26:45;;;;;;;9.32;2.28;;;;;;;;;;4962900;28;20031;-86
2022/05/13 07:29:11;;;;;;;12.82;2.38;;;;;;;;;;4985512;28;20026;-87
2022/05/13 07:31:39;;;;;;;3.28;1.60;;;;;;;;;;4968782;28;20030;-86
2022/05/13 07:34:05;;;;;;;13.05;2.38;;;;;;;;;;4966288;28;20042;-86
2022/05/13 07:36:32;;;;;;;7.65;2.53;;;;;;;;;;4967209;28;20042;-86
2022/05/13 07:41:43;;;;;;;8.93;2.42;;;;;;;;;;4985727;28;20049;-86
2022/05/13 07:44:09;;;;;;;12.30;2.50;;;;;;;;;;4965478;28;20035;-86
2022/05/13 07:46:35;;;;;;;8.27;2.40;;;;;;;;;;4965400;28;20042;-86
2022/05/13 07:49:08;;;;;;;11.57;2.22;;;;;;;;;;4968137;28;20077;-86
2022/05/13 07:51:34;;;;;;;7.60;2.28;;;;;;;;;;4967496;28;20030;-86
2022/05/13 07:54:00;;;;;;;9.30;2.35;;;;;;;;;;4963399;28;20605;-86
2022/05/13 07:56:27;;;;;;;8.52;2.60;;;;;;;;;;4986989;28;20109;-87
2022/05/13 07:58:53;;;;;;;6.65;2.00;;;;;;;;;;4983690;28;20619;-87
2022/05/13 08:01:19;;;;;;;4.82;1.73;;;;;;;;;;4966589;28;20037;-86
2022/05/13 08:03:47;;;;;;;4.32;1.73;;;;;;;;;;4983214;28;20038;-86
2022/05/13 08:06:13;;;;;;;11.57;2.00;;;;;;;;;;4982544;28;20038;-87
2022/05/13 08:08:45;;;;;;;8.40;2.00;;;;;;;;;;4977800;28;20098;-86
2022/05/13 08:11:12;;;;;;;7.00;2.13;;;;;;;;;;4965924;28;20421;-87
2022/05/13 08:13:38;;;;;;;5.20;1.92;;;;;;;;;;4965588;28;20034;-86
2022/05/13 08:16:05;;;;;;;6.40;1.70;;;;;;;;;;4977470;28;20046;-87
2022/05/13 08:18:32;;;;;;;7.25;2.05;;;;;;;;;;4956014;28;20027;-86
2022/05/13 08:20:59;;;;;;;8.90;2.13;;;;;;;;;;4964381;28;20030;-86
2022/05/13 08:23:25;;;;;;;6.10;2.13;;;;;;;;;;4983667;28;20035;-86
2022/05/13 08:25:51;;;;;;;6.35;1.70;;;;;;;;;;4968778;28;20061;-86
2022/05/13 08:28:18;;;;;;;9.55;2.35;;;;;;;;;;4968003;28;20030;-87
2022/05/13 08:30:45;;;;;;;12.05;2.17;;;;;;;;;;4966533;28;20116;-86
2022/05/13 08:33:11;;;;;;;6.07;1.73;;;;;;;;;;4965150;28;20051;-86
2022/05/13 08:35:38;;;;;;;8.07;2.25;;;;;;;;;;4963719;28;20469;-87
2022/05/13 08:38:04;;;;;;;12.43;2.13;;;;;;;;;;4966497;28;20133;-86
2022/05/13 08:40:36;;;;;;;6.35;2.28;;;;;;;;;;4968050;28;20102;-86
2022/05/13 08:43:09;;;;;;;4.80;1.80;;;;;;;;;;4965302;28;20410;-86
2022/05/13 08:45:36;;;;;;;4.28;1.63;;;;;;;;;;4955285;28;20719;-87
2022/05/13 08:48:02;;;;;;;11.32;1.75;;;;;;;;;;4966577;28;20043;-86
2022/05/13 08:50:31;;;;;;;7.75;1.98;;;;;;;;;;4957730;28;20030;-86
2022/05/13 08:53:12;;;;;;;4.75;2.08;;;;;;;;;;4965829;28;21018;-86
2022/05/13 08:55:43;;;;;;;12.73;2.35;;;;;;;;;;4976566;28;20509;-86
2022/05/13 08:58:21;;;;;;;5.60;1.73;;;;;;;;;;4980570;28;20077;-87
2022/05/13 09:00:51;;;;;;;11.75;1.65;;;;;;;;;;4969110;28;20030;-86
2022/05/13 09:03:36;;;;;;;5.47;2.05;;;;;;;;;;4980363;28;20110;-87
2022/05/13 09:06:21;;;;;;;5.95;2.13;;;;;;;;;;4987391;28;20042;-86
2022/05/13 09:08:47;;;;;;;6.85;1.70;;;;;;;;;;4955299;28;20026;-86
2022/05/13 09:11:16;;;;;;;11.02;2.05;;;;;;;;;;4960540;28;20054;-87
2022/05/13 09:14:01;;;;;;;6.10;1.63;;;;;;;;;;4960831;28;20034;-86
2022/05/13 09:16:42;;;;;;;7.68;1.58;;;;;;;;;;4973167;28;20039;-87
2022/05/13 09:19:22;;;;;;;10.32;2.13;;;;;;;;;;4965501;28;20053;-87
2022/05/13 09:21:48;;;;;;;12.43;2.03;;;;;;;;;;4956386;28;20046;-86
2022/05/13 09:24:14;;;;;;;9.35;2.03;;;;;;;;;;4964672;28;20085;-86
2022/05/13 09:26:42;;;;;;;5.90;1.75;;;;;;;;;;4963335;28;20621;-86
2022/05/13 09:29:13;;;;;;;5.43;2.33;;;;;;;;;;4967523;28;20062;-87
2022/05/13 09:31:40;;;;;;;8.45;1.85;;;;;;;;;;4961511;28;20966;-86
2022/05/13 09:34:14;;;;;;;7.07;1.60;;;;;;;;;;4953644;28;20035;-87
2022/05/13 09:36:40;;;;;;;6.15;1.75;;;;;;;;;;4966333;28;20585;-86
2022/05/13 09:39:18;;;;;;;8.07;1.48;;;;;;;;;;4961767;28;20121;-86
2022/05/13 09:41:45;;;;;;;4.53;1.95;;;;;;;;;;4981095;28;20049;-86
2022/05/13 09:44:25;;;;;;;8.57;1.35;;;;;;;;;;4980665;28;20030;-86
2022/05/13 09:47:13;;;;;;;3.90;1.48;;;;;;;;;;4980846;28;20722;-87
2022/05/13 09:49:43;;;;;;;5.55;1.63;;;;;;;;;;4982217;28;20033;-86
2022/05/13 09:52:11;;;;;;;8.05;1.17;;;;;;;;;;4967932;28;20359;-86
2022/05/13 09:54:38;;;;;;;4.00;1.08;;;;;;;;;;4975924;28;20047;-86
2022/05/13 09:57:06;;;;;;;6.35;1.63;;;;;;;;;;4977806;28;20093;-87
2022/05/13 09:59:44;;;;;;;5.32;1.20;;;;;;;;;;4963838;28;20406;-86
2022/05/13 10:02:22;;;;;;;3.95;1.17;;;;;;;;;;4974006;28;20038;-86
2022/05/13 10:04:55;;;;;;;1.98;1.13;;;;;;;;;;4964314;28;20478;-86
2022/05/13 10:07:23;;;;;;;9.70;2.22;;;;;;;;;;4961185;28;20034;-87
2022/05/13 10:15:36;;;;;;;5.85;2.00;;;;;;;;;;4981539;28;20545;-86
2022/05/13 10:18:17;;;;;;;7.53;1.80;;;;;;;;;;4966535;28;20030;-87
2022/05/13 10:20:44;;;;;;;5.38;1.40;;;;;;;;;;4960371;28;20042;-86
2022/05/13 10:23:26;;;;;;;3.42;1.48;;;;;;;;;;4973446;28;20022;-86
2022/05/13 10:26:01;;;;;;;7.03;2.20;;;;;;;;;;4968461;28;20125;-86
2022/05/13 10:28:54;;;;;;;6.68;1.67;;;;;;;;;;4957725;28;20066;-86
2022/05/13 10:31:29;;;;;;;6.78;1.67;;;;;;;;;;4965322;28;20109;-86
2022/05/13 10:34:05;;;;;;;4.80;1.60;;;;;;;;;;4959299;28;20383;-87
2022/05/13 10:36:31;;;;;;;7.70;2.08;;;;;;;;;;4960726;28;20038;-86
2022/05/13 10:39:13;;;;;;;3.92;2.17;;;;;;;;;;4956249;28;20030;-86
2022/05/13 10:41:44;;;;;;;7.22;1.95;;;;;;;;;;4979862;28;20049;-86
2022/05/13 10:44:19;;;;;;;15.30;2.00;;;;;;;;;;4964981;28;20109;-86
2022/05/13 10:46:53;;;;;;;9.85;1.92;;;;;;;;;;4983837;28;20033;-86
2022/05/13 10:49:19;;;;;;;7.80;1.90;;;;;;;;;;4962448;28;20031;-86
2022/05/13 10:51:45;;;;;;;8.00;1.70;;;;;;;;;;4960183;28;20026;-86
2022/05/13 10:54:30;;;;;;;9.73;2.20;;;;;;;;;;4962096;28;20038;-86
2022/05/13 10:57:13;;;;;;;7.15;1.70;;;;;;;;;;4967164;28;20037;-87
2022/05/13 10:59:42;;;;;;;8.82;1.50;;;;;;;;;;4956525;28;20046;-86
2022/05/13 11:02:08;;;;;;;4.30;1.70;;;;;;;;;;4963172;28;20061;-86
2022/05/13 11:04:34;;;;;;;6.15;1.60;;;;;;;;;;4953784;28;20497;-86
2022/05/13 11:07:16;;;;;;;14.45;2.00;;;;;;;;;;4965154;28;20055;-86
2022/05/13 11:09:55;;;;;;;6.72;1.60;;;;;;;;;;4973957;28;20030;-86
2022/05/13 11:12:28;;;;;;;6.03;2.20;;;;;;;;;;4973388;28;20113;-87
2022/05/13 11:15:06;;;;;;;3.92;1.30;;;;;;;;;;4966669;28;20034;-86
2022/05/13 11:17:44;;;;;;;6.57;1.75;;;;;;;;;;4978740;28;20061;-86
2022/05/13 11:20:29;;;;;;;4.78;1.33;;;;;;;;;;4978029;28;20057;-86
2022/05/13 11:23:05;;;;;;;7.47;1.73;;;;;;;;;;4957564;28;20397;-86
2022/05/13 11:26:00;;;;;;;3.30;1.60;;;;;;;;;;4977241;28;20041;-87
2022/05/13 11:28:45;;;;;;;6.65;2.00;;;;;;;;;;4943786;28;20162;-87
2022/05/13 11:31:14;;;;;;;13.45;2.05;;;;;;;;;;4959123;28;20108;-87
2022/05/13 11:33:40;;;;;;;4.53;1.63;;;;;;;;;;4979289;28;20031;-87
2022/05/13 11:36:07;;;;;;;10.95;2.22;;;;;;;;;;4964125;28;20034;-87
2022/05/13 11:38:51;;;;;;;8.20;2.13;;;;;;;;;;4960095;28;20599;-87
2022/05/13 11:41:21;;;;;;;8.32;2.30;;;;;;;;;;4963891;28;20049;-86
2022/05/13 11:43:54;;;;;;;7.07;1.98;;;;;;;;;;4974561;28;20034;-86
2022/05/13 11:46:35;;;;;;;10.10;2.30;;;;;;;;;;4954118;28;20069;-86
2022/05/13 11:49:06;;;;;;;6.68;2.28;;;;;;;;;;4974765;28;20031;-87
2022/05/13 11:51:34;;;;;;;11.68;2.20;;;;;;;;;;4972714;28;20118;-87
2022/05/13 11:54:00;;;;;;;10.82;2.63;;;;;;;;;;4959117;28;20026;-86
2022/05/13 11:56:29;;;;;;;13.98;2.25;;;;;;;;;;4960532;28;20019;-86
2022/05/13 11:59:13;;;;;;;4.53;1.83;;;;;;;;;;4958837;28;20035;-86
2022/05/13 12:01:45;;;;;;;5.63;1.85;;;;;;;;;;4953824;28;20148;-86
2022/05/13 12:04:15;;;;;;;9.43;2.00;;;;;;;;;;4963153;28;20046;-88
2022/05/13 12:06:50;;;;;;;3.80;1.67;;;;;;;;;;4973629;28;20555;-86
2022/05/13 12:09:36;;;;;;;3.92;1.90;;;;;;;;;;4966023;28;20041;-86
2022/05/13 12:12:12;;;;;;;5.65;1.20;;;;;;;;;;4961553;28;20042;-87
2022/05/13 12:15:04;;;;;;;4.90;1.50;;;;;;;;;;4978152;28;20041;-86
2022/05/13 12:17:37;;;;;;;5.05;2.00;;;;;;;;;;4962359;28;20037;-86
2022/05/13 12:20:04;;;;;;;4.90;1.45;;;;;;;;;;4967232;28;20049;-87
2022/05/13 12:22:30;;;;;;;7.65;1.45;;;;;;;;;;4980784;28;20052;-87
2022/05/13 12:25:11;;;;;;;7.53;2.25;;;;;;;;;;4961049;28;20038;-87
2022/05/13 12:27:44;;;;;;;12.45;3.25;;;;;;;;;;4960734;28;20387;-87
2022/05/13 12:30:34;;;;;;;4.90;1.90;;;;;;;;;;4968184;28;20457;-87
2022/05/13 12:33:23;;;;;;;8.50;2.28;;;;;;;;;;4956306;28;20094;-86
2022/05/13 12:39:00;;;;;;;7.70;2.03;;;;;;;;;;4982354;28;20588;-87
2022/05/13 12:41:38;;;;;;;6.15;2.20;;;;;;;;;;4969646;28;20465;-87
2022/05/13 12:44:26;;;;;;;5.88;2.55;;;;;;;;;;4963912;28;20053;-86
2022/05/13 12:47:10;;;;;;;8.68;2.50;;;;;;;;;;4967321;28;22015;-86
2022/05/13 12:49:49;;;;;;;11.10;1.67;;;;;;;;;;4970465;28;20474;-87
2022/05/13 12:52:22;;;;;;;6.40;2.05;;;;;;;;;;4969246;28;20037;-87
2022/05/13 12:54:51;;;;;;;3.72;1.48;;;;;;;;;;4977583;28;20042;-87
2022/05/13 12:57:23;;;;;;;4.70;2.00;;;;;;;;;;4960479;28;20034;-87
2022/05/13 12:59:51;;;;;;;6.55;2.00;;;;;;;;;;4980455;28;20478;-87
2022/05/13 13:02:20;;;;;;;8.18;1.60;;;;;;;;;;4973757;28;20088;-87
2022/05/13 13:04:54;;;;;;;11.15;2.13;;;;;;;;;;4963854;28;20454;-87
2022/05/13 13:07:23;;;;;;;10.50;1.73;;;;;;;;;;4965923;28;20630;-87
2022/05/13 13:09:51;;;;;;;5.30;1.85;;;;;;;;;;4982780;28;20532;-87
2022/05/13 13:12:20;;;;;;;10.52;1.83;;;;;;;;;;4981999;28;20065;-88
2022/05/13 13:14:58;;;;;;;8.13;1.70;;;;;;;;;;4967267;28;20445;-88
2022/05/13 13:17:34;;;;;;;8.85;2.10;;;;;;;;;;4959062;28;20035;-86
2022/05/13 13:20:02;;;;;;;9.35;1.75;;;;;;;;;;4983042;28;20038;-88
2022/05/13 13:22:34;;;;;;;7.22;1.75;;;;;;;;;;4986600;28;20102;-88
2022/05/13 13:25:01;;;;;;;9.10;2.13;;;;;;;;;;4968904;28;20046;-85
2022/05/13 13:27:31;;;;;;;5.03;2.33;;;;;;;;;;4982818;28;20569;-84
2022/05/13 13:29:58;;;;;;;6.68;1.67;;;;;;;;;;4982241;28;20451;-85
2022/05/13 13:32:24;;;;;;;7.40;1.67;;;;;;;;;;4964903;28;20030;-86
2022/05/13 13:34:50;;;;;;;13.93;1.90;;;;;;;;;;4966828;28;20490;-85
2022/05/13 13:37:18;;;;;;;7.22;2.55;;;;;;;;;;4965882;28;20026;-85
2022/05/13 13:39:44;;;;;;;7.28;1.67;;;;;;;;;;4963760;28;20047;-85
2022/05/13 13:42:12;;;;;;;12.98;2.70;;;;;;;;;;4964000;28;20038;-85
2022/05/13 13:44:39;;;;;;;10.68;2.05;;;;;;;;;;4963716;28;20431;-86
2022/05/13 13:47:07;;;;;;;9.48;2.10;;;;;;;;;;4980735;28;20034;-85
2022/05/13 13:49:35;;;;;;;4.43;1.63;;;;;;;;;;4963238;28;20109;-86
2022/05/13 13:52:03;;;;;;;7.38;1.90;;;;;;;;;;4955692;28;20033;-86
2022/05/13 13:54:35;;;;;;;5.60;2.15;;;;;;;;;;4957255;28;20117;-85
2022/05/13 13:57:09;;;;;;;8.77;2.50;;;;;;;;;;4985789;28;20030;-86
2022/05/13 13:59:47;;;;;;;9.75;1.90;;;;;;;;;;4958650;28;20218;-85
2022/05/13 14:02:29;;;;;;;4.65;2.00;;;;;;;;;;4984471;28;20030;-86
2022/05/13 14:04:55;;;;;;;5.85;2.13;;;;;;;;;;4969318;28;20026;-86
2022/05/13 14:07:22;;;;;;;20.73;4.03;;;;;;;;;;4963058;28;20579;-86
2022/05/13 14:09:48;;;;;;;11.73;3.00;;;;;;;;;;4958069;28;20019;-86
2022/05/13 14:12:17;;;;;;;5.63;1.52;;;;;;;;;;4971292;28;20050;-87
2022/05/13 14:14:44;;;;;;;13.98;1.95;;;;;;;;;;4964073;28;20114;-87
2022/05/13 14:17:11;;;;;;;9.38;1.88;;;;;;;;;;4967690;28;20068;-86
2022/05/13 14:19:41;;;;;;;15.38;2.88;;;;;;;;;;4963485;28;20032;-88
2022/05/13 14:22:10;;;;;;;8.00;2.28;;;;;;;;;;4972674;28;20038;-87
2022/05/13 14:24:41;;;;;;;15.52;2.40;;;;;;;;;;4960823;28;20517;-89
2022/05/13 14:27:10;;;;;;;9.45;2.30;;;;;;;;;;4966439;28;20446;-87
2022/05/13 14:29:36;;;;;;;9.05;2.47;;;;;;;;;;4967440;28;20113;-87
2022/05/13 14:32:07;;;;;;;8.20;2.28;;;;;;;;;;4968795;28;20096;-87
2022/05/13 14:34:34;;;;;;;7.65;2.10;;;;;;;;;;4981814;28;20039;-89
2022/05/13 14:37:01;;;;;;;8.32;2.10;;;;;;;;;;4967071;28;20030;-89
2022/05/13 14:42:26;;;;;;;9.02;1.73;;;;;;;;;;4980752;28;20476;-87
2022/05/13 14:44:53;;;;;;;8.30;2.47;;;;;;;;;;4964652;28;20516;-87
2022/05/13 14:47:38;;;;;;;12.27;2.20;;;;;;;;;;4979032;28;20030;-87
2022/05/13 14:50:10;;;;;;;6.15;1.98;;;;;;;;;;4977924;28;20034;-88
2022/05/13 14:52:41;;;;;;;7.60;2.15;;;;;;;;;;4963294;28;20030;-89
2022/05/13 14:55:13;;;;;;;7.43;2.22;;;;;;;;;;4975435;28;20483;-88
2022/05/13 14:57:43;;;;;;;6.15;1.60;;;;;;;;;;4963078;28;20421;-86
2022/05/13 15:00:15;;;;;;;11.30;3.10;;;;;;;;;;4964312;28;20122;-85
2022/05/13 15:02:45;;;;;;;6.65;2.13;;;;;;;;;;4964048;28;20546;-86
2022/05/13 15:05:26;;;;;;;5.85;2.17;;;;;;;;;;4963502;28;20060;-86
2022/05/13 15:07:53;;;;;;;4.18;1.52;;;;;;;;;;4974809;28;20533;-86
2022/05/13 15:10:24;;;;;;;3.92;1.80;;;;;;;;;;4961842;28;20049;-87
2022/05/13 15:12:51;;;;;;;6.25;2.15;;;;;;;;;;4962550;28;20502;-86
2022/05/13 15:15:17;;;;;;;7.57;2.80;;;;;;;;;;4964374;28;20514;-86
2022/05/13 15:17:52;;;;;;;9.52;2.15;;;;;;;;;;4959219;28;20482;-87
2022/05/13 15:20:19;;;;;;;8.73;2.00;;;;;;;;;;4966253;28;20030;-86
2022/05/13 15:22:45;;;;;;;7.97;2.08;;;;;;;;;;4961848;28;20367;-86